createdAt,value
2023-05-21T00:03:19.713Z,14.77
2023-05-21T00:08:19.496Z,14.69
2023-05-21T00:13:19.521Z,14.61
2023-05-21T00:18:19.519Z,14.57
2023-05-21T00:23:19.381Z,14.50
2023-05-21T00:28:19.345Z,14.43
2023-05-21T00:33:19.237Z,14.39
2023-05-21T00:38:19.171Z,14.29
2023-05-21T00:43:19.168Z,14.29
2023-05-21T00:48:19.034Z,14.22
2023-05-21T00:53:19.020Z,14.15
2023-05-21T00:58:19.974Z,14.10
2023-05-21T01:03:18.921Z,14.09
2023-05-21T01:08:18.765Z,14.03
2023-05-21T01:13:18.681Z,14.00
2023-05-21T01:18:18.680Z,14.02
2023-05-21T01:23:18.635Z,14.00
2023-05-21T01:28:18.584Z,13.92
2023-05-21T01:33:18.721Z,13.92
2023-05-21T01:38:18.510Z,13.95
2023-05-21T01:43:18.440Z,13.96
2023-05-21T01:48:18.388Z,13.91
2023-05-21T01:53:18.345Z,13.88
2023-05-21T01:58:18.335Z,13.89
2023-05-21T02:03:18.273Z,13.88
2023-05-21T02:08:18.121Z,13.85
2023-05-21T02:13:18.086Z,13.82
2023-05-21T02:18:18.043Z,13.82
2023-05-21T02:23:18.011Z,13.79
2023-05-21T02:28:17.967Z,13.75
2023-05-21T02:33:17.834Z,13.75
2023-05-21T02:38:18.742Z,13.77
2023-05-21T02:43:17.819Z,13.75
2023-05-21T02:48:17.892Z,13.75
2023-05-21T02:53:17.785Z,13.69
2023-05-21T02:58:17.729Z,13.64
2023-05-21T03:03:17.673Z,13.62
2023-05-21T03:08:17.507Z,13.57
2023-05-21T03:13:17.612Z,13.60
2023-05-21T03:18:18.412Z,13.59
2023-05-21T03:23:17.347Z,13.54
2023-05-21T03:28:17.253Z,13.54
2023-05-21T03:33:17.255Z,13.54
2023-05-21T03:38:17.228Z,13.54
2023-05-21T03:43:17.160Z,13.55
2023-05-21T03:48:19.124Z,13.57
2023-05-21T03:53:17.075Z,13.57
2023-05-21T03:58:16.921Z,13.59
2023-05-21T04:03:16.906Z,13.63
2023-05-21T04:08:16.812Z,13.69
2023-05-21T04:13:16.853Z,13.73
2023-05-21T04:18:16.755Z,13.73
2023-05-21T04:23:16.713Z,13.79
2023-05-21T04:28:16.565Z,13.82
2023-05-21T04:33:17.687Z,13.85
2023-05-21T04:38:16.509Z,13.91
2023-05-21T04:43:17.450Z,13.97
2023-05-21T04:48:16.471Z,14.04
2023-05-21T04:53:16.371Z,14.09
2023-05-21T04:58:16.489Z,14.15
2023-05-21T05:03:16.515Z,14.22
2023-05-21T05:08:16.362Z,14.36
2023-05-21T05:13:17.121Z,14.45
2023-05-21T05:18:19.203Z,14.51
2023-05-21T05:23:15.968Z,14.72
2023-05-21T05:28:16.017Z,14.81
2023-05-21T05:33:15.805Z,15.02
2023-05-21T05:38:21.179Z,15.23
2023-05-21T05:43:15.798Z,15.39
2023-05-21T05:48:16.743Z,15.51
2023-05-21T05:53:15.622Z,15.62
2023-05-21T05:58:15.569Z,15.80
2023-05-21T06:03:15.893Z,15.84
2023-05-21T06:08:15.679Z,15.92
2023-05-21T06:13:15.540Z,15.94
2023-05-21T06:18:15.399Z,16.07
2023-05-21T06:23:15.475Z,16.25
2023-05-21T06:28:15.298Z,16.07
2023-05-21T06:33:17.375Z,16.33
2023-05-21T06:38:16.550Z,16.28
2023-05-21T06:43:18.202Z,16.58
2023-05-21T06:48:17.254Z,16.57
2023-05-21T06:53:15.345Z,16.67
2023-05-21T06:58:15.276Z,16.75
2023-05-21T07:03:15.409Z,17.12
2023-05-21T07:08:16.099Z,17.23
2023-05-21T07:13:22.820Z,17.40
2023-05-21T07:18:16.688Z,17.66
2023-05-21T07:23:14.684Z,17.90
2023-05-21T07:28:14.685Z,18.32
2023-05-21T07:33:15.636Z,18.26
2023-05-21T07:38:14.507Z,18.87
2023-05-21T07:43:15.047Z,18.88
2023-05-21T07:48:14.649Z,18.51
2023-05-21T07:53:14.388Z,18.41
2023-05-21T07:58:20.010Z,19.11
2023-05-21T08:03:15.928Z,19.33
2023-05-21T08:08:14.147Z,19.61
2023-05-21T08:13:36.979Z,19.71
2023-05-21T08:18:16.220Z,20.41
2023-05-21T08:23:14.122Z,20.57
2023-05-21T08:28:15.027Z,20.91
2023-05-21T08:33:20.888Z,20.97
2023-05-21T08:38:14.627Z,21.17
2023-05-21T08:43:13.934Z,21.40
2023-05-21T08:48:23.329Z,21.56
2023-05-21T08:53:24.155Z,21.19
2023-05-21T08:58:14.710Z,21.27
2023-05-21T09:03:13.800Z,21.53
2023-05-21T09:08:13.688Z,21.29
2023-05-21T09:13:13.626Z,21.83
2023-05-21T09:18:13.956Z,21.69
2023-05-21T09:23:13.329Z,21.67
2023-05-21T09:28:13.277Z,22.17
2023-05-21T09:33:13.259Z,22.40
2023-05-21T09:38:13.173Z,22.75
2023-05-21T09:43:13.116Z,22.76
2023-05-21T09:48:13.032Z,23.04
2023-05-21T09:53:12.993Z,23.50
2023-05-21T09:58:12.911Z,23.50
2023-05-21T10:03:12.987Z,23.42
2023-05-21T10:08:12.992Z,23.83
2023-05-21T10:13:12.876Z,23.54
2023-05-21T10:18:12.815Z,23.73
2023-05-21T10:23:12.729Z,23.35
2023-05-21T10:28:12.657Z,23.48
2023-05-21T10:33:12.662Z,23.88
2023-05-21T10:38:12.527Z,23.98
2023-05-21T10:43:12.481Z,24.02
2023-05-21T10:48:12.498Z,24.32
2023-05-21T10:53:12.464Z,23.94
2023-05-21T10:58:12.409Z,24.87
2023-05-21T11:03:12.414Z,24.47
2023-05-21T11:08:12.350Z,25.02
2023-05-21T11:13:12.288Z,25.65
2023-05-21T11:18:12.304Z,26.17
2023-05-21T11:23:12.124Z,26.17
2023-05-21T11:28:12.054Z,25.98
2023-05-21T11:33:12.037Z,25.99
2023-05-21T11:38:11.968Z,25.65
2023-05-21T11:43:12.052Z,25.75
2023-05-21T11:48:11.967Z,25.69
2023-05-21T11:53:11.873Z,25.43
2023-05-21T11:58:11.792Z,25.82
2023-05-21T12:03:11.882Z,26.02
2023-05-21T12:08:11.696Z,25.75
2023-05-21T12:13:11.701Z,25.67
2023-05-21T12:18:11.619Z,25.72
2023-05-21T12:23:11.546Z,26.20
2023-05-21T12:28:11.496Z,25.91
2023-05-21T12:33:11.472Z,25.85
2023-05-21T12:38:11.490Z,26.50
2023-05-21T12:43:11.412Z,26.87
2023-05-21T12:48:11.349Z,26.84
2023-05-21T12:53:11.343Z,26.84
2023-05-21T12:58:11.221Z,26.94
2023-05-21T13:03:11.212Z,27.09
2023-05-21T13:08:11.084Z,26.77
2023-05-21T13:13:11.080Z,26.60
2023-05-21T13:18:11.043Z,26.28
2023-05-21T13:23:11.817Z,26.89
2023-05-21T13:28:10.933Z,26.45
2023-05-21T13:33:10.999Z,26.67
2023-05-21T13:38:10.891Z,27.06
2023-05-21T13:43:10.822Z,27.24
2023-05-21T13:48:11.794Z,27.14
2023-05-21T13:53:10.725Z,26.95
2023-05-21T13:58:10.605Z,27.12
2023-05-21T14:03:10.555Z,26.72
2023-05-21T14:08:10.518Z,26.65
2023-05-21T14:13:19.126Z,26.69
2023-05-21T14:18:11.534Z,27.25
2023-05-21T14:23:10.442Z,27.39
2023-05-21T14:28:12.358Z,27.06
2023-05-21T14:33:10.359Z,27.00
2023-05-21T14:38:10.223Z,27.31
2023-05-21T14:43:10.182Z,26.54
2023-05-21T14:48:10.182Z,26.85
2023-05-21T14:53:18.946Z,27.60
2023-05-21T14:58:10.022Z,27.36
2023-05-21T15:03:10.042Z,28.44
2023-05-21T15:08:09.921Z,29.90
2023-05-21T15:13:09.850Z,29.98
2023-05-21T15:18:09.931Z,30.61
2023-05-21T15:23:16.823Z,30.31
2023-05-21T15:28:10.730Z,29.64
2023-05-21T15:33:09.693Z,30.24
2023-05-21T15:38:09.600Z,31.04
2023-05-21T15:43:09.670Z,30.11
2023-05-21T15:48:09.553Z,28.61
2023-05-21T15:53:09.541Z,27.70
2023-05-21T15:58:09.433Z,27.51
2023-05-21T16:03:09.480Z,27.27
2023-05-21T16:08:09.317Z,27.12
2023-05-21T16:13:09.322Z,26.85
2023-05-21T16:18:09.299Z,26.92
2023-05-21T16:23:09.156Z,26.77
2023-05-21T16:28:09.162Z,26.76
2023-05-21T16:33:09.152Z,26.65
2023-05-21T16:38:09.027Z,26.23
2023-05-21T16:43:08.952Z,26.18
2023-05-21T16:48:08.990Z,26.13
2023-05-21T16:53:08.798Z,26.21
2023-05-21T16:58:08.752Z,26.09
2023-05-21T17:03:08.757Z,25.98
2023-05-21T17:08:08.779Z,25.72
2023-05-21T17:13:20.778Z,25.45
2023-05-21T17:18:09.654Z,25.75
2023-05-21T17:23:08.568Z,25.60
2023-05-21T17:28:08.476Z,25.57
2023-05-21T17:33:08.505Z,25.65
2023-05-21T17:38:08.375Z,25.39
2023-05-21T17:43:08.290Z,25.40
2023-05-21T17:48:08.340Z,25.23
2023-05-21T17:53:08.241Z,25.30
2023-05-21T17:58:08.169Z,25.13
2023-05-21T18:03:08.170Z,25.17
2023-05-21T18:08:08.035Z,25.13
2023-05-21T18:13:08.072Z,25.06
2023-05-21T18:18:07.945Z,24.95
2023-05-21T18:23:07.861Z,24.98
2023-05-21T18:28:07.806Z,24.85
2023-05-21T18:33:07.861Z,24.81
2023-05-21T18:38:07.718Z,24.85
2023-05-21T18:43:07.656Z,24.85
2023-05-21T18:48:08.523Z,24.76
2023-05-21T18:53:07.637Z,24.47
2023-05-21T18:58:07.467Z,24.18
2023-05-21T19:03:07.479Z,23.36
2023-05-21T19:08:07.418Z,22.91
2023-05-21T19:13:07.332Z,22.58
2023-05-21T19:18:07.320Z,22.43
2023-05-21T19:23:07.209Z,22.33
2023-05-21T19:28:07.145Z,22.31
2023-05-21T19:33:07.242Z,22.21
2023-05-21T19:38:07.151Z,22.14
2023-05-21T19:43:07.107Z,21.92
2023-05-21T19:48:07.057Z,21.88
2023-05-21T19:53:06.966Z,21.88
2023-05-21T19:58:06.846Z,21.79
2023-05-21T20:03:06.897Z,21.74
2023-05-21T20:08:06.724Z,21.58
2023-05-21T20:13:10.055Z,21.40
2023-05-21T20:18:07.067Z,21.32
2023-05-21T20:23:08.637Z,21.14
2023-05-21T20:28:16.398Z,20.99
2023-05-21T20:33:16.224Z,21.04
2023-05-21T20:38:06.425Z,20.92
2023-05-21T20:43:06.367Z,20.72
2023-05-21T20:48:06.325Z,20.55
2023-05-21T20:53:06.352Z,20.66
2023-05-21T20:58:06.290Z,20.70
2023-05-21T21:03:06.298Z,20.57
2023-05-21T21:08:06.165Z,20.51
2023-05-21T21:13:06.076Z,20.18
2023-05-21T21:18:06.023Z,20.26
2023-05-21T21:23:05.951Z,20.06
2023-05-21T21:28:05.842Z,19.68
2023-05-21T21:33:05.891Z,20.23
2023-05-21T21:38:05.763Z,20.43
2023-05-21T21:43:05.691Z,20.29
2023-05-21T21:48:05.744Z,20.48
2023-05-21T21:53:05.644Z,20.48
2023-05-21T21:58:05.549Z,20.23
2023-05-21T22:03:05.667Z,20.14
2023-05-21T22:08:05.513Z,20.06
2023-05-21T22:13:05.474Z,19.99
2023-05-21T22:18:05.381Z,19.84
2023-05-21T22:23:05.260Z,19.80
2023-05-21T22:28:05.214Z,19.71
2023-05-21T22:33:05.168Z,19.62
2023-05-21T22:38:05.176Z,19.62
2023-05-21T22:43:05.146Z,19.54
2023-05-21T22:48:05.105Z,19.46
2023-05-21T22:53:04.998Z,19.31
2023-05-21T22:58:04.939Z,19.29
2023-05-21T23:03:04.891Z,19.28
2023-05-21T23:08:04.749Z,19.21
2023-05-21T23:13:04.740Z,19.02
2023-05-21T23:18:04.721Z,19.04
2023-05-21T23:23:04.805Z,18.95
2023-05-21T23:28:04.545Z,18.90
2023-05-21T23:33:04.633Z,18.88
2023-05-21T23:38:05.646Z,18.82
2023-05-21T23:43:04.488Z,18.75
2023-05-21T23:48:04.517Z,18.67
2023-05-21T23:53:04.283Z,18.60
2023-05-21T23:58:04.225Z,18.52
